Aeroporto :
LOGIN :

Iscrizione | Disclaimer

   EN    FR    IT 

 










Sommario :    VFR   VFR Marginale   IFR   IFR Intensivo   IFR Molto Intensivo
Visibilità : 
Base nubi : 
>= 8 km
>= 3000ft
5 / 8 km
1000 / 3000 ft
1500m / 5 km
500 / 1000 ft
800 / 1500m
200 / 500 ft
< 800m
< 200 ft
Simboli :   Temporali  Nebbia  Neve Forte  Precipitazioni Forti  Vento > 20 kt
SIGMETs :   Varie  Temporali  Ghiacco  Turbolenza  Onda orograficha  Ceneri Vulcaniche






- Altitudine del aeroporto : 821 ft
- Codice IATA : LYS


LFLL - Lyon St Exupéry / Satolas

ULTIMO METAR :
  • 192130Z 10004KT 9999 FEW041 05/03 Q1028 NOSIG

METARs OBSOLETI :
  • 192100Z 09005KT 9999 FEW041 05/04 Q1028 NOSIG
  • 192030Z 10005KT 9999 SCT041 06/04 Q1028 NOSIG
  • 192000Z 08005KT 9999 SCT040 SCT060 06/04 Q1028 NOSIG
  • 191900Z 31004KT 9999 -RA BKN032 BKN041 07/05 Q1029 NOSIG

TAF AMD TAF LFLL
Valido dal 19 a 21 ore il 21 a 00 ore UTC


192131Z 1921/2024 15005KT 9999 FEW040
PROB40
TEMPO 1923/2008 4000 BR
PROB30
TEMPO 2000/2004 VRB02KT 1000 BCFG



MetMap, La meteo Aeronautica in un colpo d'occhio ! - Copyright ORBIFLY Dicembre 2007 - Disclaimer

ORBIFLY MET'MAP TEAM :

Programmazione e sviluppo : Alexandra Zaïnal
Concezione : Baudouin d'Aumeries
Aiuto per la programmazione : Marc-Olivier Méhu
Supporto tecnico e logistico : Manuel Goepfert
Aiuto per la traduzione : Arnaldo La Scala

Contatto : metmap@orbifly.com




FONTI E CREDITI :

   NOAA